<?xml version='1.0' encoding='UTF-8'?><gpx version="1.1" creator="JPX - https://github.com/jenetics/jpx" xmlns="http://www.topografix.com/GPX/1/1"><trk><trkseg><trkpt lat="44.33581972900002" lon="10.615772880163837"><ele>781.0</ele><time>2026-04-19T16:52:07Z</time></trkpt><trkpt lat="44.33588591182268" lon="10.6158378945998"><ele>781.0</ele><time>2026-04-19T16:52:12Z</time></trkpt><trkpt lat="44.33593890543589" lon="10.615887561090343"><ele>781.0</ele><time>2026-04-19T16:52:17Z</time></trkpt><trkpt lat="44.33599477195673" lon="10.615953133318031"><ele>781.0</ele><time>2026-04-19T16:52:23Z</time></trkpt><trkpt lat="44.336044659581184" lon="10.616020910082776"><ele>781.0</ele><time>2026-04-19T16:52:29Z</time></trkpt><trkpt lat="44.33609437393056" lon="10.61607702914538"><ele>781.0</ele><time>2026-04-19T16:52:33.999Z</time></trkpt><trkpt lat="44.336157103535754" lon="10.616123689327052"><ele>781.0</ele><time>2026-04-19T16:52:39.999Z</time></trkpt><trkpt lat="44.33621759873773" lon="10.616189747150004"><ele>780.2857142857143</ele><time>2026-04-19T16:52:45.999Z</time></trkpt><trkpt lat="44.336275926459834" lon="10.616237904765311"><ele>779.5714285714287</ele><time>2026-04-19T16:52:51Z</time></trkpt><trkpt lat="44.336330800952965" lon="10.616291539895418"><ele>778.8571428571429</ele><time>2026-04-19T16:52:57Z</time></trkpt><trkpt lat="44.33639549676502" lon="10.616337836342366"><ele>778.1428571428571</ele><time>2026-04-19T16:53:01Z</time></trkpt><trkpt lat="44.3364523391981" lon="10.616387614628856"><ele>777.4285714285714</ele><time>2026-04-19T16:53:06Z</time></trkpt><trkpt lat="44.33650591614658" lon="10.616434947091937"><ele>776.7142857142857</ele><time>2026-04-19T16:53:11Z</time></trkpt><trkpt lat="44.33657168706325" lon="10.61644071928099"><ele>776.0</ele><time>2026-04-19T16:53:17Z</time></trkpt><trkpt lat="44.336634149114566" lon="10.616496800247045"><ele>776.0</ele><time>2026-04-19T16:53:26Z</time></trkpt><trkpt lat="44.336695293746" lon="10.61653895920044"><ele>776.0</ele><time>2026-04-19T16:53:31Z</time></trkpt><trkpt lat="44.33675625624738" lon="10.616597048848398"><ele>776.0</ele><time>2026-04-19T16:53:36Z</time></trkpt><trkpt lat="44.336814931191824" lon="10.616640316341629"><ele>776.0</ele><time>2026-04-19T16:53:41Z</time></trkpt><trkpt lat="44.33685142297784" lon="10.61671743479675"><ele>776.0</ele><time>2026-04-19T16:53:46Z</time></trkpt><trkpt lat="44.336923575317996" lon="10.616733931879452"><ele>776.0</ele><time>2026-04-19T16:53:56Z</time></trkpt><trkpt lat="44.33698671690816" lon="10.616778078464993"><ele>776.0</ele><time>2026-04-19T16:54:02Z</time></trkpt><trkpt lat="44.337044646985596" lon="10.616825936976285"><ele>776.0</ele><time>2026-04-19T16:54:07Z</time></trkpt><trkpt lat="44.33710380885011" lon="10.616862914392726"><ele>776.0</ele><time>2026-04-19T16:54:14Z</time></trkpt><trkpt lat="44.337162577649536" lon="10.616901769890008"><ele>776.0</ele><time>2026-04-19T16:54:20Z</time></trkpt><trkpt lat="44.337226555127835" lon="10.6169544821572"><ele>776.0</ele><time>2026-04-19T16:54:27Z</time></trkpt><trkpt lat="44.3372883609955" lon="10.617011634404065"><ele>776.0</ele><time>2026-04-19T16:54:33Z</time></trkpt><trkpt lat="44.337351236428354" lon="10.617063948464775"><ele>776.0</ele><time>2026-04-19T16:54:38Z</time></trkpt><trkpt lat="44.33740927393661" lon="10.617114366986074"><ele>776.0</ele><time>2026-04-19T16:54:43.999Z</time></trkpt><trkpt lat="44.33747219950211" lon="10.617131627981285"><ele>776.7142857142857</ele><time>2026-04-19T16:55:09Z</time></trkpt><trkpt lat="44.33752851517579" lon="10.617185762243171"><ele>777.4285714285714</ele><time>2026-04-19T16:55:15Z</time></trkpt><trkpt lat="44.33759307333316" lon="10.617167772042553"><ele>778.1428571428571</ele><time>2026-04-19T16:55:21Z</time></trkpt><trkpt lat="44.33762257427951" lon="10.617076282067622"><ele>778.8571428571429</ele><time>2026-04-19T16:55:28Z</time></trkpt><trkpt lat="44.33759217470577" lon="10.616961636691125"><ele>779.5714285714287</ele><time>2026-04-19T16:55:35Z</time></trkpt><trkpt lat="44.337571258493426" lon="10.616867092280698"><ele>780.2857142857143</ele><time>2026-04-19T16:55:43Z</time></trkpt><trkpt lat="44.337543307424" lon="10.616782789694774"><ele>781.0</ele><time>2026-04-19T16:55:50Z</time></trkpt><trkpt lat="44.33752097853379" lon="10.616688673357093"><ele>782.4285714285714</ele><time>2026-04-19T16:55:57Z</time></trkpt><trkpt lat="44.3374926223595" lon="10.616602742168867"><ele>783.8571428571429</ele><time>2026-04-19T16:56:04Z</time></trkpt><trkpt lat="44.33747645279903" lon="10.616515377880365"><ele>785.2857142857142</ele><time>2026-04-19T16:56:09Z</time></trkpt><trkpt lat="44.33746133815863" lon="10.616417406455646"><ele>786.7142857142858</ele><time>2026-04-19T16:56:32Z</time></trkpt><trkpt lat="44.33746171519626" lon="10.61632849592492"><ele>788.1428571428571</ele><time>2026-04-19T16:56:44Z</time></trkpt><trkpt lat="44.337508618464376" lon="10.616259266095181"><ele>789.5714285714286</ele><time>2026-04-19T16:56:54Z</time></trkpt><trkpt lat="44.33757036457211" lon="10.61628410969657"><ele>791.0</ele><time>2026-04-19T16:57:05Z</time></trkpt><trkpt lat="44.33761771439069" lon="10.616354641162975"><ele>791.0</ele><time>2026-04-19T16:57:33Z</time></trkpt><trkpt lat="44.33766395831095" lon="10.616416803466759"><ele>791.0</ele><time>2026-04-19T16:57:39Z</time></trkpt><trkpt lat="44.337716948079425" lon="10.616465601497591"><ele>791.0</ele><time>2026-04-19T16:57:45Z</time></trkpt><trkpt lat="44.33778533638309" lon="10.616471302718976"><ele>791.0</ele><time>2026-04-19T16:57:52Z</time></trkpt><trkpt lat="44.33780356248775" lon="10.616378434297825"><ele>791.0</ele><time>2026-04-19T16:57:59Z</time></trkpt><trkpt lat="44.337766876063995" lon="10.61629513510412"><ele>791.0</ele><time>2026-04-19T16:58:06Z</time></trkpt><trkpt lat="44.337734370020584" lon="10.61621929360741"><ele>791.0</ele><time>2026-04-19T16:58:13Z</time></trkpt><trkpt lat="44.33770603479549" lon="10.616126980351815"><ele>792.8571428571429</ele><time>2026-04-19T16:58:19Z</time></trkpt><trkpt lat="44.33768884390322" lon="10.616035596507846"><ele>794.7142857142858</ele><time>2026-04-19T16:58:25Z</time></trkpt><trkpt lat="44.33769075332739" lon="10.61594451527058"><ele>796.5714285714286</ele><time>2026-04-19T16:58:36Z</time></trkpt><trkpt lat="44.337714398638475" lon="10.615855994169207"><ele>798.4285714285714</ele><time>2026-04-19T16:58:42Z</time></trkpt><trkpt lat="44.33774741574389" lon="10.615777335650021"><ele>800.2857142857143</ele><time>2026-04-19T16:58:48Z</time></trkpt><trkpt lat="44.33779164316211" lon="10.615691860733952"><ele>802.1428571428571</ele><time>2026-04-19T16:58:54Z</time></trkpt><trkpt lat="44.33783140461093" lon="10.615621204109324"><ele>804.0</ele><time>2026-04-19T16:58:59Z</time></trkpt><trkpt lat="44.33788786129734" lon="10.615556482271474"><ele>804.0</ele><time>2026-04-19T16:59:06Z</time></trkpt><trkpt lat="44.33795313822446" lon="10.615547531540813"><ele>804.0</ele><time>2026-04-19T16:59:14Z</time></trkpt><trkpt lat="44.33801883996958" lon="10.615587055971881"><ele>804.0</ele><time>2026-04-19T16:59:20Z</time></trkpt><trkpt lat="44.338067141855426" lon="10.615644706450649"><ele>804.0</ele><time>2026-04-19T16:59:26Z</time></trkpt><trkpt lat="44.33811633285193" lon="10.61571616496657"><ele>804.0</ele><time>2026-04-19T16:59:32Z</time></trkpt><trkpt lat="44.33816866488508" lon="10.615661155278634"><ele>804.0</ele><time>2026-04-19T16:59:51Z</time></trkpt><trkpt lat="44.338197025303494" lon="10.61558217580119"><ele>804.0</ele><time>2026-04-19T16:59:54Z</time></trkpt><trkpt lat="44.3382373038431" lon="10.615510040448981"><ele>807.1428571428571</ele><time>2026-04-19T16:59:57Z</time></trkpt><trkpt lat="44.33833196167719" lon="10.615486270171752"><ele>810.2857142857143</ele><time>2026-04-19T17:00:50Z</time></trkpt><trkpt lat="44.33841204333378" lon="10.615456524911172"><ele>813.4285714285714</ele><time>2026-04-19T17:01:03.999Z</time></trkpt><trkpt lat="44.338479672868814" lon="10.615417484814548"><ele>816.5714285714286</ele><time>2026-04-19T17:01:13Z</time></trkpt><trkpt lat="44.33848682649124" lon="10.615327957548411"><ele>819.7142857142858</ele><time>2026-04-19T17:01:21Z</time></trkpt><trkpt lat="44.338478119277134" lon="10.61523972877838"><ele>822.8571428571429</ele><time>2026-04-19T17:01:30Z</time></trkpt><trkpt lat="44.33848985117366" lon="10.61514905174024"><ele>826.0</ele><time>2026-04-19T17:01:36Z</time></trkpt><trkpt lat="44.33847494360255" lon="10.615063290287276"><ele>827.0</ele><time>2026-04-19T17:01:43Z</time></trkpt><trkpt lat="44.3384754816601" lon="10.614975181564759"><ele>828.0</ele><time>2026-04-19T17:01:50Z</time></trkpt><trkpt lat="44.338463452647666" lon="10.61486032385784"><ele>829.0</ele><time>2026-04-19T17:02:12Z</time></trkpt><trkpt lat="44.33851903303166" lon="10.614794276281987"><ele>830.0</ele><time>2026-04-19T17:02:35Z</time></trkpt><trkpt lat="44.33855764816165" lon="10.614723227985884"><ele>831.0</ele><time>2026-04-19T17:02:45Z</time></trkpt><trkpt lat="44.33860204600002" lon="10.61464920447253"><ele>832.0</ele><time>2026-04-19T17:02:53Z</time></trkpt><trkpt lat="44.33862677444791" lon="10.614567841719454"><ele>833.0</ele><time>2026-04-19T17:03:06Z</time></trkpt><trkpt lat="44.3386552260192" lon="10.614488553878862"><ele>834.0</ele><time>2026-04-19T17:03:13.999Z</time></trkpt><trkpt lat="44.338675464414514" lon="10.614400247069419"><ele>835.0</ele><time>2026-04-19T17:03:22Z</time></trkpt><trkpt lat="44.33870430842457" lon="10.614315732640993"><ele>836.0</ele><time>2026-04-19T17:03:27Z</time></trkpt><trkpt lat="44.33872333871216" lon="10.614222478524674"><ele>837.0</ele><time>2026-04-19T17:03:34Z</time></trkpt><trkpt lat="44.33874722994322" lon="10.614140075753136"><ele>838.0</ele><time>2026-04-19T17:03:41Z</time></trkpt><trkpt lat="44.33878569225771" lon="10.614056557995012"><ele>839.0</ele><time>2026-04-19T17:03:49Z</time></trkpt><trkpt lat="44.33882668239696" lon="10.614125425523195"><ele>840.0</ele><time>2026-04-19T17:03:54Z</time></trkpt><trkpt lat="44.33880453348618" lon="10.614216599999073"><ele>840.0</ele><time>2026-04-19T17:03:59Z</time></trkpt><trkpt lat="44.338753753011304" lon="10.61428511585962"><ele>840.0</ele><time>2026-04-19T17:06:11Z</time></trkpt><trkpt lat="44.33879626289621" lon="10.614187314240313"><ele>840.0</ele><time>2026-04-19T17:13:57Z</time></trkpt><trkpt lat="44.338813346004116" lon="10.614089664710736"><ele>840.0</ele><time>2026-04-19T17:14:04Z</time></trkpt><trkpt lat="44.3388137982505" lon="10.61399433330159"><ele>840.0</ele><time>2026-04-19T17:14:09Z</time></trkpt><trkpt lat="44.33880664143057" lon="10.613888718528365"><ele>840.0</ele><time>2026-04-19T17:14:16Z</time></trkpt><trkpt lat="44.33878046650297" lon="10.613808424253953"><ele>840.0</ele><time>2026-04-19T17:14:26Z</time></trkpt><trkpt lat="44.33872352898373" lon="10.61377001293407"><ele>840.0</ele><time>2026-04-19T17:14:39Z</time></trkpt><trkpt lat="44.33867791037881" lon="10.613844599860252"><ele>840.0</ele><time>2026-04-19T17:14:50Z</time></trkpt><trkpt lat="44.33865386935949" lon="10.613937556090331"><ele>840.0</ele><time>2026-04-19T17:14:57Z</time></trkpt><trkpt lat="44.338607833326726" lon="10.614004422038091"><ele>840.0</ele><time>2026-04-19T17:15:06Z</time></trkpt><trkpt lat="44.33854566668904" lon="10.614032212119763"><ele>840.0</ele><time>2026-04-19T17:15:13Z</time></trkpt><trkpt lat="44.33847904368694" lon="10.61401070184598"><ele>840.0</ele><time>2026-04-19T17:15:23Z</time></trkpt><trkpt lat="44.33841632914981" lon="10.61397954724281"><ele>840.0</ele><time>2026-04-19T17:15:35Z</time></trkpt><trkpt lat="44.33835445457388" lon="10.613931162861336"><ele>840.0</ele><time>2026-04-19T17:15:43Z</time></trkpt><trkpt lat="44.33830036376954" lon="10.613882326095577"><ele>840.0</ele><time>2026-04-19T17:15:48Z</time></trkpt><trkpt lat="44.33823617106745" lon="10.613835154171841"><ele>840.0</ele><time>2026-04-19T17:15:54Z</time></trkpt><trkpt lat="44.33817100305121" lon="10.613811217683214"><ele>840.0</ele><time>2026-04-19T17:16:00Z</time></trkpt><trkpt lat="44.33809743745138" lon="10.613788626105455"><ele>840.0</ele><time>2026-04-19T17:16:06Z</time></trkpt><trkpt lat="44.338028133379524" lon="10.613773016195022"><ele>840.0</ele><time>2026-04-19T17:16:11Z</time></trkpt><trkpt lat="44.33796037012732" lon="10.613749700193386"><ele>840.0</ele><time>2026-04-19T17:16:16Z</time></trkpt><trkpt lat="44.33789741718356" lon="10.613725300380516"><ele>838.8571428571429</ele><time>2026-04-19T17:16:21Z</time></trkpt><trkpt lat="44.33782388284506" lon="10.613731250106099"><ele>837.7142857142858</ele><time>2026-04-19T17:16:27Z</time></trkpt><trkpt lat="44.33776015384606" lon="10.613698473086767"><ele>836.5714285714286</ele><time>2026-04-19T17:16:32Z</time></trkpt><trkpt lat="44.337695712301326" lon="10.613653218874587"><ele>835.4285714285714</ele><time>2026-04-19T17:16:38Z</time></trkpt><trkpt lat="44.33763704820775" lon="10.613614374393235"><ele>834.2857142857143</ele><time>2026-04-19T17:16:43Z</time></trkpt><trkpt lat="44.33758692897486" lon="10.613552453775815"><ele>833.1428571428571</ele><time>2026-04-19T17:16:48Z</time></trkpt><trkpt lat="44.33757081241182" lon="10.613467013878362"><ele>832.0</ele><time>2026-04-19T17:16:53Z</time></trkpt><trkpt lat="44.33750940366384" lon="10.613421779546341"><ele>832.0</ele><time>2026-04-19T17:17:08Z</time></trkpt><trkpt lat="44.33744501222869" lon="10.61343134110645"><ele>832.0</ele><time>2026-04-19T17:17:14Z</time></trkpt><trkpt lat="44.33737005381325" lon="10.613451923543273"><ele>832.0</ele><time>2026-04-19T17:17:22Z</time></trkpt><trkpt lat="44.337311267017746" lon="10.613492692887919"><ele>832.0</ele><time>2026-04-19T17:17:27Z</time></trkpt><trkpt lat="44.33724922543568" lon="10.613526284358038"><ele>832.0</ele><time>2026-04-19T17:17:35Z</time></trkpt><trkpt lat="44.3372043562178" lon="10.613590295924027"><ele>832.0</ele><time>2026-04-19T17:17:42Z</time></trkpt><trkpt lat="44.33716055313343" lon="10.613663098996744"><ele>832.0</ele><time>2026-04-19T17:17:50Z</time></trkpt><trkpt lat="44.33712815258598" lon="10.613751272157419"><ele>828.7142857142857</ele><time>2026-04-19T17:17:57Z</time></trkpt><trkpt lat="44.33708419139756" lon="10.613828387182322"><ele>825.4285714285714</ele><time>2026-04-19T17:18:04Z</time></trkpt><trkpt lat="44.33705237092946" lon="10.613930821340894"><ele>822.1428571428571</ele><time>2026-04-19T17:18:12Z</time></trkpt><trkpt lat="44.33701674222101" lon="10.614014675183597"><ele>818.8571428571429</ele><time>2026-04-19T17:18:17Z</time></trkpt><trkpt lat="44.33696521742622" lon="10.614074728088447"><ele>815.5714285714287</ele><time>2026-04-19T17:18:24Z</time></trkpt><trkpt lat="44.33689904690772" lon="10.61410305142127"><ele>812.2857142857143</ele><time>2026-04-19T17:18:33Z</time></trkpt><trkpt lat="44.33682956082327" lon="10.614084473270049"><ele>809.0</ele><time>2026-04-19T17:18:46Z</time></trkpt><trkpt lat="44.33676675338069" lon="10.614063032684912"><ele>809.0</ele><time>2026-04-19T17:18:52Z</time></trkpt><trkpt lat="44.33671655494776" lon="10.614007197636468"><ele>809.0</ele><time>2026-04-19T17:19:02Z</time></trkpt><trkpt lat="44.336644318881106" lon="10.613952404424403"><ele>809.0</ele><time>2026-04-19T17:19:10Z</time></trkpt><trkpt lat="44.336579827162026" lon="10.613919262840561"><ele>809.0</ele><time>2026-04-19T17:19:17Z</time></trkpt><trkpt lat="44.33652810495062" lon="10.613864384669366"><ele>809.0</ele><time>2026-04-19T17:19:22Z</time></trkpt><trkpt lat="44.33648537248781" lon="10.613798242196234"><ele>809.0</ele><time>2026-04-19T17:19:26Z</time></trkpt><trkpt lat="44.33645161632006" lon="10.613715779199719"><ele>809.0</ele><time>2026-04-19T17:19:34Z</time></trkpt><trkpt lat="44.33641284770236" lon="10.613640252870029"><ele>809.8571428571429</ele><time>2026-04-19T17:19:41Z</time></trkpt><trkpt lat="44.33637048751086" lon="10.613563830750365"><ele>810.7142857142858</ele><time>2026-04-19T17:19:48Z</time></trkpt><trkpt lat="44.33632741120754" lon="10.613493755825402"><ele>811.5714285714286</ele><time>2026-04-19T17:19:56.999Z</time></trkpt><trkpt lat="44.33627280340424" lon="10.613434005897295"><ele>812.4285714285714</ele><time>2026-04-19T17:20:04.999Z</time></trkpt><trkpt lat="44.336233332366355" lon="10.613356431071844"><ele>813.2857142857142</ele><time>2026-04-19T17:20:10Z</time></trkpt><trkpt lat="44.33618217596319" lon="10.61328381623616"><ele>814.1428571428571</ele><time>2026-04-19T17:20:15Z</time></trkpt><trkpt lat="44.33613114245689" lon="10.613230196170754"><ele>815.0</ele><time>2026-04-19T17:20:20Z</time></trkpt><trkpt lat="44.33607730051002" lon="10.61315138169355"><ele>815.0</ele><time>2026-04-19T17:20:28Z</time></trkpt><trkpt lat="44.336023403149916" lon="10.61308731271216"><ele>815.0</ele><time>2026-04-19T17:20:35Z</time></trkpt><trkpt lat="44.33596482720254" lon="10.613023219335725"><ele>815.0</ele><time>2026-04-19T17:20:41Z</time></trkpt><trkpt lat="44.33591440235329" lon="10.612966444544842"><ele>815.0</ele><time>2026-04-19T17:20:46Z</time></trkpt><trkpt lat="44.335845913025416" lon="10.612949506412223"><ele>815.0</ele><time>2026-04-19T17:20:51Z</time></trkpt><trkpt lat="44.33578887826238" lon="10.61290288413705"><ele>815.0</ele><time>2026-04-19T17:20:58Z</time></trkpt><trkpt lat="44.335761814933605" lon="10.612821474023075"><ele>815.0</ele><time>2026-04-19T17:21:06Z</time></trkpt><trkpt lat="44.335704444421445" lon="10.612777253300862"><ele>815.0</ele><time>2026-04-19T17:21:11Z</time></trkpt><trkpt lat="44.335638396286136" lon="10.612772780804665"><ele>815.0</ele><time>2026-04-19T17:21:17Z</time></trkpt><trkpt lat="44.33559591400039" lon="10.612842854600803"><ele>815.0</ele><time>2026-04-19T17:21:28Z</time></trkpt><trkpt lat="44.33551988270578" lon="10.61281074142704"><ele>815.0</ele><time>2026-04-19T17:21:34Z</time></trkpt><trkpt lat="44.335455304396234" lon="10.612764987474756"><ele>815.0</ele><time>2026-04-19T17:21:42Z</time></trkpt><trkpt lat="44.335393717756276" lon="10.61273116563326"><ele>815.0</ele><time>2026-04-19T17:21:49.999Z</time></trkpt><trkpt lat="44.33533156842569" lon="10.612665696331854"><ele>815.0</ele><time>2026-04-19T17:21:55.999Z</time></trkpt><trkpt lat="44.33528666505275" lon="10.612599828147104"><ele>814.5714285714286</ele><time>2026-04-19T17:21:59.999Z</time></trkpt><trkpt lat="44.335231873498905" lon="10.612538256198162"><ele>814.1428571428571</ele><time>2026-04-19T17:22:05.999Z</time></trkpt><trkpt lat="44.335168671210745" lon="10.612486429482077"><ele>813.7142857142858</ele><time>2026-04-19T17:22:13Z</time></trkpt><trkpt lat="44.33510272238908" lon="10.61248512255172"><ele>813.2857142857142</ele><time>2026-04-19T17:22:19Z</time></trkpt><trkpt lat="44.33502918613263" lon="10.612487136067143"><ele>812.8571428571429</ele><time>2026-04-19T17:22:26Z</time></trkpt><trkpt lat="44.33496380208783" lon="10.612503656490496"><ele>812.4285714285714</ele><time>2026-04-19T17:22:31Z</time></trkpt><trkpt lat="44.334906995113705" lon="10.612562299113312"><ele>812.0</ele><time>2026-04-19T17:22:39Z</time></trkpt><trkpt lat="44.33487607210496" lon="10.612644845702947"><ele>812.0</ele><time>2026-04-19T17:22:48Z</time></trkpt><trkpt lat="44.334846733125985" lon="10.612732418630658"><ele>812.0</ele><time>2026-04-19T17:22:55Z</time></trkpt><trkpt lat="44.33483391329898" lon="10.612830909283698"><ele>812.0</ele><time>2026-04-19T17:23:02Z</time></trkpt><trkpt lat="44.33480350736544" lon="10.612908545369278"><ele>812.0</ele><time>2026-04-19T17:23:08Z</time></trkpt><trkpt lat="44.334760195615054" lon="10.612979567040677"><ele>812.0</ele><time>2026-04-19T17:23:13Z</time></trkpt><trkpt lat="44.33470385523428" lon="10.613035209480518"><ele>812.0</ele><time>2026-04-19T17:23:22Z</time></trkpt><trkpt lat="44.33464095104372" lon="10.61307269087126"><ele>812.0</ele><time>2026-04-19T17:23:28Z</time></trkpt><trkpt lat="44.33457204605212" lon="10.613083031348113"><ele>809.2857142857143</ele><time>2026-04-19T17:23:33Z</time></trkpt><trkpt lat="44.334508942369006" lon="10.6130891392726"><ele>806.5714285714286</ele><time>2026-04-19T17:23:38Z</time></trkpt><trkpt lat="44.33444187670985" lon="10.613124712751924"><ele>803.8571428571429</ele><time>2026-04-19T17:23:45Z</time></trkpt><trkpt lat="44.33446332702914" lon="10.613214190184722"><ele>801.1428571428571</ele><time>2026-04-19T17:23:54.999Z</time></trkpt><trkpt lat="44.33445531002049" lon="10.61330598541615"><ele>798.4285714285714</ele><time>2026-04-19T17:24:02.999Z</time></trkpt><trkpt lat="44.3344323416355" lon="10.613397527596335"><ele>795.7142857142858</ele><time>2026-04-19T17:24:06.999Z</time></trkpt><trkpt lat="44.334427962217596" lon="10.613486356222872"><ele>793.0</ele><time>2026-04-19T17:24:10.999Z</time></trkpt><trkpt lat="44.334407136799776" lon="10.613579632801171"><ele>792.1428571428572</ele><time>2026-04-19T17:24:18Z</time></trkpt><trkpt lat="44.3343960501271" lon="10.613666869449785"><ele>791.2857142857143</ele><time>2026-04-19T17:24:25Z</time></trkpt><trkpt lat="44.3343713214862" lon="10.613764162372796"><ele>790.4285714285714</ele><time>2026-04-19T17:24:39Z</time></trkpt><trkpt lat="44.33435646061746" lon="10.613860118989727"><ele>789.5714285714287</ele><time>2026-04-19T17:24:46Z</time></trkpt><trkpt lat="44.33434059691181" lon="10.613956768567522"><ele>788.7142857142857</ele><time>2026-04-19T17:24:50Z</time></trkpt><trkpt lat="44.33432893362535" lon="10.614051131964578"><ele>787.8571428571429</ele><time>2026-04-19T17:24:55Z</time></trkpt><trkpt lat="44.334318460319196" lon="10.614145892250896"><ele>787.0</ele><time>2026-04-19T17:25:03Z</time></trkpt><trkpt lat="44.3343098501036" lon="10.614239657022704"><ele>787.0</ele><time>2026-04-19T17:25:10Z</time></trkpt><trkpt lat="44.33430387903774" lon="10.614342318144947"><ele>787.0</ele><time>2026-04-19T17:25:17Z</time></trkpt><trkpt lat="44.334295545964544" lon="10.614441290846926"><ele>787.0</ele><time>2026-04-19T17:25:25Z</time></trkpt><trkpt lat="44.334286030434484" lon="10.614536079673364"><ele>787.0</ele><time>2026-04-19T17:25:30Z</time></trkpt><trkpt lat="44.33428465660003" lon="10.614632754308428"><ele>787.0</ele><time>2026-04-19T17:25:37.999Z</time></trkpt><trkpt lat="44.334274529100014" lon="10.614722929395613"><ele>787.0</ele><time>2026-04-19T17:25:45.999Z</time></trkpt><trkpt lat="44.334261034833546" lon="10.614814204808658"><ele>787.0</ele><time>2026-04-19T17:25:53.999Z</time></trkpt><trkpt lat="44.33423705114543" lon="10.614901773181332"><ele>786.4285714285714</ele><time>2026-04-19T17:25:59.999Z</time></trkpt><trkpt lat="44.33416742922586" lon="10.614940578569033"><ele>785.8571428571429</ele><time>2026-04-19T17:26:06.999Z</time></trkpt><trkpt lat="44.3341140375286" lon="10.615000171620848"><ele>785.2857142857142</ele><time>2026-04-19T17:26:12.999Z</time></trkpt><trkpt lat="44.33405798664317" lon="10.615049358005304"><ele>784.7142857142858</ele><time>2026-04-19T17:26:15.999Z</time></trkpt><trkpt lat="44.333999867602216" lon="10.615109801413636"><ele>784.1428571428572</ele><time>2026-04-19T17:26:22Z</time></trkpt><trkpt lat="44.33393971523621" lon="10.615172277112837"><ele>783.5714285714286</ele><time>2026-04-19T17:26:28Z</time></trkpt><trkpt lat="44.33389558287186" lon="10.615241088342167"><ele>783.0</ele><time>2026-04-19T17:26:33Z</time></trkpt><trkpt lat="44.33388608432723" lon="10.61533193837196"><ele>783.0</ele><time>2026-04-19T17:26:41Z</time></trkpt><trkpt lat="44.33384720845771" lon="10.615401405022462"><ele>783.0</ele><time>2026-04-19T17:26:46Z</time></trkpt><trkpt lat="44.333804504079005" lon="10.615470083429386"><ele>783.0</ele><time>2026-04-19T17:26:51Z</time></trkpt><trkpt lat="44.33376155429335" lon="10.615534975228833"><ele>783.0</ele><time>2026-04-19T17:26:57Z</time></trkpt><trkpt lat="44.33370318264715" lon="10.6155990916936"><ele>783.0</ele><time>2026-04-19T17:27:03Z</time></trkpt><trkpt lat="44.333658152464814" lon="10.61566068582525"><ele>783.0</ele><time>2026-04-19T17:27:08Z</time></trkpt><trkpt lat="44.33360702108048" lon="10.615748316486192"><ele>783.0</ele><time>2026-04-19T17:27:14Z</time></trkpt><trkpt lat="44.333568026068455" lon="10.615828925302596"><ele>783.0</ele><time>2026-04-19T17:27:23Z</time></trkpt><trkpt lat="44.33351037164665" lon="10.615880851046935"><ele>783.0</ele><time>2026-04-19T17:27:34Z</time></trkpt><trkpt lat="44.3334706576774" lon="10.61595684602683"><ele>783.0</ele><time>2026-04-19T17:27:40.999Z</time></trkpt><trkpt lat="44.33345166910838" lon="10.616052244110566"><ele>783.0</ele><time>2026-04-19T17:27:44.999Z</time></trkpt><trkpt lat="44.33338872390423" lon="10.616140704779578"><ele>783.0</ele><time>2026-04-19T17:28:13.999Z</time></trkpt><trkpt lat="44.3333201244676" lon="10.616140127714656"><ele>783.0</ele><time>2026-04-19T17:28:21.999Z</time></trkpt><trkpt lat="44.33333757315774" lon="10.61628109270602"><ele>783.0</ele><time>2026-04-19T17:28:44Z</time></trkpt><trkpt lat="44.33332062237754" lon="10.616379343055288"><ele>783.0</ele><time>2026-04-19T17:28:50Z</time></trkpt><trkpt lat="44.33336587257413" lon="10.616284015479089"><ele>783.0</ele><time>2026-04-19T17:32:44Z</time></trkpt><trkpt lat="44.33327832408161" lon="10.616304413800322"><ele>783.0</ele><time>2026-04-19T17:32:54Z</time></trkpt><trkpt lat="44.33321110222899" lon="10.616294811667514"><ele>783.0</ele><time>2026-04-19T17:32:58Z</time></trkpt><trkpt lat="44.3332594446652" lon="10.616100107658859"><ele>783.0</ele><time>2026-04-19T17:33:47.999Z</time></trkpt><trkpt lat="44.33329292279282" lon="10.616181341346016"><ele>776.0</ele><time>2026-04-19T17:33:54.999Z</time></trkpt><trkpt lat="44.33325237484087" lon="10.616251227786233"><ele>776.0</ele><time>2026-04-19T17:34:09.999Z</time></trkpt><trkpt lat="44.333294065261725" lon="10.61632439202463"><ele>776.0</ele><time>2026-04-19T17:34:39.999Z</time></trkpt></trkseg></trk></gpx>